createdAt,value
2022-10-05T00:01:45.000Z,6.7
2022-10-05T00:05:17.000Z,8.4
2022-10-05T00:08:50.000Z,5.7
2022-10-05T00:12:23.000Z,8.8
2022-10-05T00:15:55.000Z,9.9
2022-10-05T00:19:28.000Z,9.6
2022-10-05T00:23:01.000Z,8.4
2022-10-05T00:25:52.000Z,6.3
2022-10-05T00:29:24.000Z,8.7
2022-10-05T00:32:57.000Z,5.5
2022-10-05T00:36:30.000Z,6.6
2022-10-05T00:40:02.000Z,6.4
2022-10-05T00:43:35.000Z,6.4
2022-10-05T00:47:07.000Z,5.8
2022-10-05T00:50:40.000Z,6.6
2022-10-05T00:54:13.000Z,8.2
2022-10-05T00:57:45.000Z,9.1
2022-10-05T01:01:18.000Z,9.3
2022-10-05T01:04:09.000Z,6.6
2022-10-05T01:07:41.000Z,6.5
2022-10-05T01:11:14.000Z,7.3
2022-10-05T01:14:47.000Z,7.4
2022-10-05T01:18:19.000Z,6.6
2022-10-05T01:21:52.000Z,7.9
2022-10-05T01:25:25.000Z,7
2022-10-05T01:28:57.000Z,6.5
2022-10-05T01:32:30.000Z,10.5
2022-10-05T01:36:09.000Z,9.2
2022-10-05T01:40:13.000Z,6.8
2022-10-05T01:43:04.000Z,7.4
2022-10-05T01:46:37.000Z,8.5
2022-10-05T01:50:10.000Z,11.6
2022-10-05T01:53:42.000Z,9.2
2022-10-05T01:57:15.000Z,9.4
2022-10-05T02:00:47.000Z,8
2022-10-05T02:04:20.000Z,7.7
2022-10-05T02:08:25.000Z,6.8
2022-10-05T02:11:58.000Z,9.6
2022-10-05T02:15:30.000Z,8.8
2022-10-05T02:19:03.000Z,6.9
2022-10-05T02:21:54.000Z,8.1
2022-10-05T02:25:27.000Z,8.7
2022-10-05T02:28:59.000Z,7.2
2022-10-05T02:32:32.000Z,7.5
2022-10-05T02:36:05.000Z,7.7
2022-10-05T02:39:38.000Z,10.4
2022-10-05T02:43:10.000Z,8.7
2022-10-05T02:46:43.000Z,5.7
2022-10-05T02:50:22.000Z,7.6
2022-10-05T02:53:54.000Z,8
2022-10-05T02:57:27.000Z,7.3
2022-10-05T03:00:18.000Z,8.4
2022-10-05T03:03:51.000Z,9.3
2022-10-05T03:07:23.000Z,6
2022-10-05T03:10:56.000Z,6.9
2022-10-05T03:14:29.000Z,8.7
2022-10-05T03:18:02.000Z,10.2
2022-10-05T03:21:34.000Z,11.5
2022-10-05T03:25:07.000Z,11.1
2022-10-05T03:28:40.000Z,6.3
2022-10-05T03:32:12.000Z,9.3
2022-10-05T03:35:45.000Z,10.2
2022-10-05T03:38:36.000Z,10.2
2022-10-05T03:42:08.000Z,6
2022-10-05T03:45:41.000Z,13.4
2022-10-05T03:49:14.000Z,11.3
2022-10-05T03:52:46.000Z,10.7
2022-10-05T03:56:19.000Z,8.7
2022-10-05T03:59:51.000Z,11.3
2022-10-05T04:03:24.000Z,13.3
2022-10-05T04:06:57.000Z,14.1
2022-10-05T04:10:29.000Z,14
2022-10-05T04:14:02.000Z,15.3
2022-10-05T04:16:53.000Z,14.5
2022-10-05T04:20:26.000Z,10.7
2022-10-05T04:23:58.000Z,12.3
2022-10-05T04:27:31.000Z,9.7
2022-10-05T04:31:04.000Z,11
2022-10-05T04:34:36.000Z,12.8
2022-10-05T04:38:09.000Z,13.5
2022-10-05T04:41:41.000Z,12.9
2022-10-05T04:45:14.000Z,10.5
2022-10-05T04:48:47.000Z,11.1
2022-10-05T04:52:20.000Z,11.9
2022-10-05T04:55:11.000Z,12
2022-10-05T04:58:44.000Z,11.2
2022-10-05T05:02:17.000Z,11.5
2022-10-05T05:05:50.000Z,12.8
2022-10-05T05:09:41.000Z,15.6
2022-10-05T05:13:18.000Z,12.6
2022-10-05T05:16:51.000Z,14.4
2022-10-05T05:20:23.000Z,11.3
2022-10-05T05:23:56.000Z,11.4
2022-10-05T05:27:28.000Z,12.8
2022-10-05T05:31:01.000Z,14.3
2022-10-05T05:33:52.000Z,10.7
2022-10-05T05:37:25.000Z,16.3
2022-10-05T05:40:58.000Z,14.4
2022-10-05T05:44:30.000Z,16.3
2022-10-05T05:48:04.000Z,9.4
2022-10-05T05:51:36.000Z,15.9
2022-10-05T05:55:09.000Z,9.8
2022-10-05T05:58:42.000Z,16.5
2022-10-05T06:02:15.000Z,13.6
2022-10-05T06:05:48.000Z,14.8
2022-10-05T06:09:26.000Z,21.2
2022-10-05T06:12:17.000Z,26.6
2022-10-05T06:15:50.000Z,43.1
2022-10-05T06:19:23.000Z,59.5
2022-10-05T06:22:55.000Z,66.9
2022-10-05T06:26:28.000Z,69.7
2022-10-05T06:30:01.000Z,52.8
2022-10-05T06:33:34.000Z,66.6
2022-10-05T06:37:06.000Z,96.8
2022-10-05T06:40:39.000Z,98.8
2022-10-05T06:44:12.000Z,95.6
2022-10-05T06:47:44.000Z,95.4
2022-10-05T06:50:35.000Z,104
2022-10-05T06:54:08.000Z,98
2022-10-05T06:57:40.000Z,89.9
2022-10-05T07:01:13.000Z,99.7
2022-10-05T07:04:46.000Z,90
2022-10-05T07:08:18.000Z,104.9
2022-10-05T07:11:51.000Z,106.8
2022-10-05T07:15:30.000Z,99.1
2022-10-05T07:19:03.000Z,100.1
2022-10-05T07:22:35.000Z,106.4
2022-10-05T07:26:08.000Z,96.8
2022-10-05T07:28:59.000Z,86.1
2022-10-05T07:32:32.000Z,82.8
2022-10-05T07:36:04.000Z,80.2
2022-10-05T07:39:37.000Z,76.6
2022-10-05T07:43:25.000Z,66.5
2022-10-05T07:47:26.000Z,66.4
2022-10-05T07:50:59.000Z,61.5
2022-10-05T07:54:33.000Z,51.2
2022-10-05T07:58:06.000Z,51.3
2022-10-05T08:01:39.000Z,38.5
2022-10-05T08:05:11.000Z,40.5
2022-10-05T08:08:03.000Z,37.6
2022-10-05T08:11:39.000Z,38.6
2022-10-05T08:15:12.000Z,32.8
2022-10-05T08:18:45.000Z,31
2022-10-05T08:22:17.000Z,30.1
2022-10-05T08:25:50.000Z,25.8
2022-10-05T08:29:23.000Z,27.6
2022-10-05T08:32:55.000Z,28.5
2022-10-05T08:36:28.000Z,25.4
2022-10-05T08:40:01.000Z,23.4
2022-10-05T08:43:33.000Z,24.6
2022-10-05T08:46:25.000Z,20.3
2022-10-05T08:49:58.000Z,20.3
2022-10-05T08:53:30.000Z,20
2022-10-05T08:57:03.000Z,18.1
2022-10-05T09:00:35.000Z,17
2022-10-05T09:04:08.000Z,21.3
2022-10-05T09:07:41.000Z,16.6
2022-10-05T09:11:13.000Z,15.7
2022-10-05T09:14:46.000Z,15.1
2022-10-05T09:18:49.000Z,14.4
2022-10-05T09:22:22.000Z,15.6
2022-10-05T09:25:13.000Z,14.2
2022-10-05T09:28:45.000Z,12.8
2022-10-05T09:32:18.000Z,15.3
2022-10-05T09:35:50.000Z,11.9
2022-10-05T09:39:23.000Z,13.3
2022-10-05T09:42:56.000Z,14.6
2022-10-05T09:46:28.000Z,13.9
2022-10-05T09:50:01.000Z,12.3
2022-10-05T09:53:34.000Z,10.5
2022-10-05T09:57:07.000Z,12.7
2022-10-05T10:00:39.000Z,14.2
2022-10-05T10:03:47.000Z,11.5
2022-10-05T10:07:19.000Z,8.5
2022-10-05T10:10:52.000Z,7.9
2022-10-05T10:14:25.000Z,7.5
2022-10-05T10:17:57.000Z,8.9
2022-10-05T10:21:30.000Z,8.9
2022-10-05T10:25:03.000Z,7.9
2022-10-05T10:28:35.000Z,6
2022-10-05T10:32:08.000Z,7.5
2022-10-05T10:35:40.000Z,6
2022-10-05T10:39:13.000Z,6.9
2022-10-05T10:42:04.000Z,5.3
2022-10-05T10:45:37.000Z,5.2
2022-10-05T10:49:09.000Z,4.7
2022-10-05T10:52:42.000Z,4.6
2022-10-05T10:56:14.000Z,4.5
2022-10-05T10:59:47.000Z,3.7
2022-10-05T11:03:20.000Z,3.3
2022-10-05T11:06:53.000Z,4.2
2022-10-05T11:10:25.000Z,3.4
2022-10-05T11:13:58.000Z,4.9
2022-10-05T11:17:30.000Z,3.8
2022-10-05T11:20:21.000Z,5.2
2022-10-05T11:23:54.000Z,5.5
2022-10-05T11:27:27.000Z,4.3
2022-10-05T11:30:59.000Z,7.7
2022-10-05T11:34:32.000Z,6.7
2022-10-05T11:38:05.000Z,8
2022-10-05T11:41:37.000Z,10.8
2022-10-05T11:45:11.000Z,6.8
2022-10-05T11:48:43.000Z,8.8
2022-10-05T11:52:16.000Z,6.2
2022-10-05T11:55:49.000Z,6.3
2022-10-05T11:58:40.000Z,8.3
2022-10-05T12:02:13.000Z,6.7
2022-10-05T12:05:45.000Z,10.7
2022-10-05T12:09:18.000Z,8
2022-10-05T12:12:51.000Z,8.3
2022-10-05T12:16:23.000Z,9
2022-10-05T12:19:56.000Z,8.5
2022-10-05T12:23:29.000Z,9.7
2022-10-05T12:27:01.000Z,8.7
2022-10-05T12:30:34.000Z,6.5
2022-10-05T12:34:07.000Z,8.2
2022-10-05T12:36:58.000Z,8.1
2022-10-05T12:40:31.000Z,7.3
2022-10-05T12:44:03.000Z,9.6
2022-10-05T12:47:36.000Z,8.7
2022-10-05T12:51:08.000Z,8.3
2022-10-05T12:54:41.000Z,7.9
2022-10-05T12:58:14.000Z,9.6
2022-10-05T13:01:46.000Z,7.8
2022-10-05T13:05:19.000Z,10.6
2022-10-05T13:08:52.000Z,13.1
2022-10-05T13:12:24.000Z,9.7
2022-10-05T13:15:16.000Z,10
2022-10-05T13:18:53.000Z,10.3
2022-10-05T13:22:26.000Z,8
2022-10-05T13:25:59.000Z,9
2022-10-05T13:29:31.000Z,8.3
2022-10-05T13:33:04.000Z,8.8
2022-10-05T13:36:36.000Z,9.2
2022-10-05T13:40:09.000Z,8.1
2022-10-05T13:43:42.000Z,9.3
2022-10-05T13:47:14.000Z,8.6
2022-10-05T13:50:47.000Z,5.9
2022-10-05T13:53:38.000Z,8.1
2022-10-05T13:57:11.000Z,8.6
2022-10-05T14:00:43.000Z,6.1
2022-10-05T14:04:16.000Z,4.8
2022-10-05T14:07:54.000Z,9.9
2022-10-05T14:11:26.000Z,4.7
2022-10-05T14:14:59.000Z,4.3
2022-10-05T14:18:32.000Z,6.4
2022-10-05T14:22:05.000Z,6.9
2022-10-05T14:25:37.000Z,5.3
2022-10-05T14:29:10.000Z,4.7
2022-10-05T14:32:01.000Z,5.9
2022-10-05T14:35:34.000Z,4.2
2022-10-05T14:39:06.000Z,4.5
2022-10-05T14:42:39.000Z,6.2
2022-10-05T14:46:12.000Z,4.6
2022-10-05T14:49:52.000Z,8.2
2022-10-05T14:53:25.000Z,3.8
2022-10-05T14:56:57.000Z,4.7
2022-10-05T15:00:30.000Z,3.8
2022-10-05T15:04:03.000Z,4.4
2022-10-05T15:07:35.000Z,4.4
2022-10-05T15:10:26.000Z,5.1
2022-10-05T15:13:59.000Z,6.6
2022-10-05T15:17:31.000Z,3.8
2022-10-05T15:21:04.000Z,3.8
2022-10-05T15:24:37.000Z,4
2022-10-05T15:28:09.000Z,5.2
2022-10-05T15:31:47.000Z,10.5
2022-10-05T15:35:19.000Z,5.8
2022-10-05T15:38:52.000Z,7
2022-10-05T15:42:25.000Z,5.9
2022-10-05T15:45:58.000Z,6.9
2022-10-05T15:48:49.000Z,5.3
2022-10-05T15:52:22.000Z,5.6
2022-10-05T15:55:54.000Z,5.1
2022-10-05T15:59:27.000Z,3.7
2022-10-05T16:03:00.000Z,6.9
2022-10-05T16:06:32.000Z,5.8
2022-10-05T16:10:05.000Z,7.7
2022-10-05T16:13:37.000Z,4.4
2022-10-05T16:17:10.000Z,6
2022-10-05T16:20:43.000Z,10.7
2022-10-05T16:24:15.000Z,6.3
2022-10-05T16:27:07.000Z,7
2022-10-05T16:30:40.000Z,7.3
2022-10-05T16:34:12.000Z,7.1
2022-10-05T16:37:45.000Z,5.6
2022-10-05T16:41:18.000Z,5.2
2022-10-05T16:44:50.000Z,6.4
2022-10-05T16:48:26.000Z,6
2022-10-05T16:51:59.000Z,6
2022-10-05T16:55:32.000Z,8.5
2022-10-05T16:59:04.000Z,6.3
2022-10-05T17:02:37.000Z,7.8
2022-10-05T17:05:28.000Z,7.3
2022-10-05T17:09:01.000Z,7.8
2022-10-05T17:12:33.000Z,5.3
2022-10-05T17:16:06.000Z,7.3
2022-10-05T17:19:39.000Z,6.2
2022-10-05T17:23:11.000Z,6.8
2022-10-05T17:26:44.000Z,6.1
2022-10-05T17:30:17.000Z,7.9
2022-10-05T17:33:49.000Z,6.6
2022-10-05T17:37:22.000Z,6.1
2022-10-05T17:40:55.000Z,8.1
2022-10-05T17:43:45.000Z,7.8
2022-10-05T17:47:18.000Z,7.2
2022-10-05T17:50:51.000Z,6.5
2022-10-05T17:54:23.000Z,13.6
2022-10-05T17:57:56.000Z,19.5
2022-10-05T18:01:28.000Z,22.6
2022-10-05T18:05:01.000Z,17.8
2022-10-05T18:08:34.000Z,10.2
2022-10-05T18:12:06.000Z,13.6
2022-10-05T18:15:39.000Z,10.5
2022-10-05T18:19:12.000Z,9.8
2022-10-05T18:22:03.000Z,21.7
2022-10-05T18:25:35.000Z,59.2
2022-10-05T18:29:08.000Z,42.4
2022-10-05T18:32:41.000Z,38.5
2022-10-05T18:36:13.000Z,55
2022-10-05T18:39:46.000Z,95.5
2022-10-05T18:43:19.000Z,42.7
2022-10-05T18:46:51.000Z,15.9
2022-10-05T18:50:24.000Z,15.9
2022-10-05T18:53:57.000Z,12.5
2022-10-05T18:57:30.000Z,9.5
2022-10-05T19:00:20.000Z,8.8
2022-10-05T19:03:53.000Z,9
2022-10-05T19:07:45.000Z,11
2022-10-05T19:11:18.000Z,12.2
2022-10-05T19:14:50.000Z,9.3
2022-10-05T19:18:23.000Z,10.9
2022-10-05T19:21:56.000Z,11.2
2022-10-05T19:25:29.000Z,9.1
2022-10-05T19:29:01.000Z,10.7
2022-10-05T19:32:34.000Z,10.1
2022-10-05T19:36:07.000Z,8.9
2022-10-05T19:38:58.000Z,12.5
2022-10-05T19:42:30.000Z,9
2022-10-05T19:46:03.000Z,12.5
2022-10-05T19:49:39.000Z,8.2
2022-10-05T19:53:12.000Z,11.8
2022-10-05T19:56:45.000Z,9.3
2022-10-05T20:00:17.000Z,10.4
2022-10-05T20:03:50.000Z,10.7
2022-10-05T20:07:23.000Z,10.6
2022-10-05T20:10:55.000Z,10
2022-10-05T20:14:28.000Z,7.2
2022-10-05T20:17:19.000Z,7.8
2022-10-05T20:20:52.000Z,8.2
2022-10-05T20:24:25.000Z,9.6
2022-10-05T20:27:57.000Z,7.3
2022-10-05T20:31:30.000Z,8.5
2022-10-05T20:35:03.000Z,7.9
2022-10-05T20:38:35.000Z,5.9
2022-10-05T20:42:08.000Z,6.4
2022-10-05T20:45:41.000Z,8.1
2022-10-05T20:49:13.000Z,5.5
2022-10-05T20:52:46.000Z,7.4
2022-10-05T20:55:37.000Z,5.3
2022-10-05T20:59:10.000Z,5.3
2022-10-05T21:02:42.000Z,6.7
2022-10-05T21:06:15.000Z,7.4
2022-10-05T21:09:48.000Z,4.9
2022-10-05T21:13:21.000Z,8.5
2022-10-05T21:16:53.000Z,6.3
2022-10-05T21:20:26.000Z,8.1
2022-10-05T21:23:59.000Z,6.8
2022-10-05T21:27:31.000Z,8.6
2022-10-05T21:31:10.000Z,6
2022-10-05T21:34:02.000Z,6.1
2022-10-05T21:37:35.000Z,6.6
2022-10-05T21:41:07.000Z,7.7
2022-10-05T21:44:40.000Z,8.1
2022-10-05T21:48:13.000Z,10.2
2022-10-05T21:51:45.000Z,6.2
2022-10-05T21:55:18.000Z,6.9
2022-10-05T21:58:50.000Z,6.7
2022-10-05T22:02:23.000Z,5.4
2022-10-05T22:05:56.000Z,7.1
2022-10-05T22:09:28.000Z,5.5
2022-10-05T22:12:20.000Z,5.3
2022-10-05T22:15:52.000Z,5.3
2022-10-05T22:19:25.000Z,5.5
2022-10-05T22:22:58.000Z,7.9
2022-10-05T22:26:30.000Z,5.6
2022-10-05T22:30:03.000Z,6
2022-10-05T22:33:36.000Z,9.9
2022-10-05T22:37:10.000Z,6.8
2022-10-05T22:40:43.000Z,8.5
2022-10-05T22:44:15.000Z,8.1
2022-10-05T22:47:48.000Z,5.7
2022-10-05T22:50:39.000Z,6
2022-10-05T22:54:12.000Z,8
2022-10-05T22:57:44.000Z,7
2022-10-05T23:01:17.000Z,5.6
2022-10-05T23:04:50.000Z,9.5
2022-10-05T23:08:22.000Z,10.8
2022-10-05T23:11:56.000Z,8.9
2022-10-05T23:15:28.000Z,8
2022-10-05T23:19:01.000Z,9.1
2022-10-05T23:22:34.000Z,5.9
2022-10-05T23:26:06.000Z,4.6
2022-10-05T23:28:57.000Z,6.5
2022-10-05T23:32:30.000Z,8.3
2022-10-05T23:36:03.000Z,5.9
2022-10-05T23:39:35.000Z,7.3
2022-10-05T23:43:08.000Z,5.4
2022-10-05T23:46:41.000Z,5.3
2022-10-05T23:50:13.000Z,5.4
2022-10-05T23:53:46.000Z,9.8
2022-10-05T23:57:19.000Z,8.4
